x

Central Gulf Of Alaska - 265nm West Of Cape Ommaney, Akk (46085) Wave Buoy

12:50am - Tue 27th Jan 2015 All times are UTC.

  • Sig Wave height 6.9ft
  • Peak Period 11s
  • Average Period 7s
  • Wind
    4mph, 7mph gusts
  • Sea Temp 45°f
  • Air Temp 39°f
  • Sea Pressure 1013.7mb

More Historic Weather Station data

Upgrade to MSW Pro to gain access to the past 30 days of data for over 8000 Wavebouys and Weather Stations around the globe.

Join Pro

Comparision Forecast

View Surf forecast
   
Tue 01/27 12:50am 7ft 11s 7s 4 7 mph 1013.7mb 45f 39f
Mon 01/26 11:50pm 7ft 11s 7s 4 9 mph 1014mb 45f 39f
10:50pm 7ft 9s 7s  -  2 mph 1014.5mb 45f 39f
9:50pm 8.5ft 10s 8s  -  4 mph 1014.9mb 45f 39f
8:50pm 8ft 10s 8s 2 9 mph 1015.1mb 45f 39f
7:50pm 8ft 8s 7s 4 7 mph 1015.2mb 45f 39f
6:50pm 7ft 11s 7s 9 13 mph 1014.9mb 45f 39f
5:50pm 8ft 9s 7s 4 7 mph 1014.8mb 45f 39f
4:50pm 9ft 10s 7s 4 9 mph 1014.7mb 45f 39f
3:50pm 8.5ft 10s 7s 4 9 mph 1014.9mb 45f 39f
2:50pm 8.5ft 11s 7s 4 7 mph 1014.9mb 45f 39f
1:50pm 8ft 10s 7s 4 11 mph 1015.1mb 45f 39f
12:50pm 9ft 11s 7s 9 11 mph 1015.2mb 45f 39f
11:50am 9ft 10s 7s 9 13 mph 1015.3mb 45f 39f
10:50am 10ft 10s 7s 7 11 mph 1015.4mb 45f 39f
9:50am 10ft 9s 7s 9 13 mph 1015.2mb 45f 39f
8:50am 10ft 10s 7s 11 13 mph 1014.9mb 45f 39f
7:50am 10ft 10s 7s 9 13 mph 1014.5mb 45f 39f
6:50am 10ft 10s 7s 13 18 mph 1014mb 45f 40f
5:50am 10ft 11s 7s 13 20 mph 1013.6mb 45f 40f
4:50am 10ft 10s 7s 11 13 mph 1013.2mb 45f 40f
3:50am 10ft 11s 7s 13 16 mph 1012.6mb 45f 40f
2:50am 11ft 11s 7s 16 20 mph 1011.8mb 45f 40f
1:50am 10.5ft 11s 7s 16 18 mph 1011.2mb 45f 40f
12:50am 10.5ft 11s 7s 20 25 mph 1010.6mb 45f 40f
Sun 01/25 11:50pm 10.5ft 11s 7s 22 27 mph 1010.2mb 45f 41f
10:50pm 11.5ft 10s 7s 16 20 mph 1009.8mb 45f 41f
9:50pm 11.5ft 10s 7s 16 18 mph 1009.8mb 45f 40f
8:50pm 11.5ft 10s 7s 16 20 mph 1009.3mb 45f 40f
7:50pm 11ft 9s 7s 18 22 mph 1008.4mb 45f 39f
6:50pm 10.5ft 10s 7s 18 25 mph 1007.7mb 45f 39f
5:50pm 11ft 10s 7s 18 22 mph 1006.8mb 45f 39f
4:50pm 12ft 11s 7s 18 25 mph 1005.9mb 45f 39f
3:50pm 11.5ft 9s 7s 18 22 mph 1005.2mb 45f 39f
2:50pm 11ft 10s 7s 18 22 mph 1004.3mb 45f 39f
1:50pm 10ft 10s 7s 18 25 mph 1003.4mb 45f 40f
12:50pm 9.5ft 9s 7s 18 25 mph 1002.4mb 45f 40f
11:50am 9ft 8s 6s 22 27 mph 1001.3mb 45f 41f
10:50am 9ft 10s 6s 20 25 mph 1000.1mb 45f 42f
9:50am 9ft 10s 6s 22 27 mph 998.7mb 45f 42f
8:50am 8.5ft 10s 7s 22 27 mph 997.6mb 45f 43f
7:50am 9ft 10s 7s 18 22 mph 996.3mb 45f 44f
6:50am 9ft 9s 7s 16 18 mph 995mb 45f 44f
5:50am 11ft 9s 8s 13 18 mph 994mb 45f 45f
4:50am 9ft 8s 7s 16 20 mph 992.9mb 45f 45f
3:50am 9ft 13s 7s 16 20 mph 991.8mb 45f 44f
2:50am 9ft 11s 7s 13 16 mph 990.6mb 45f 44f
1:50am 8ft 14s 7s 16 18 mph 989.1mb 45f 44f
12:50am 8ft 9s 7s 16 20 mph 988.2mb 45f 44f
Sat 01/24 11:50pm 8.5ft 13s 7s 18 22 mph 988mb 45f 44f
10:50pm 8.5ft 11s 7s 18 22 mph 988.3mb 45f 44f
9:50pm 9ft 11s 7s 16 20 mph 989.7mb 45f 44f
8:50pm 10ft 12s 8s 16 20 mph 991.6mb 45f 44f
7:50pm 9.5ft 11s 8s 16 20 mph 993.2mb 45f 44f
6:50pm 9ft 11s 7s 16 20 mph 995mb 45f 45f
5:50pm 10ft 11s 7s 16 20 mph 996.7mb 45f 45f
4:50pm 10ft 11s 7s 18 22 mph 998.2mb 45f 45f
3:50pm 10.5ft 10s 7s 18 22 mph 999.5mb 45f 45f
2:50pm 10ft 11s 7s 18 20 mph 1000.8mb 45f 45f
1:50pm 10.5ft 10s 7s 13 18 mph 1001.9mb 45f 45f
12:50pm 11ft 12s 8s 16 18 mph 1003.2mb 45f 45f
11:50am 11.5ft 11s 7s 16 18 mph 1003.4mb 45f 45f
10:50am 12ft 11s 7s 13 16 mph 1004.6mb 45f 46f
9:50am 12.5ft 11s 7s 16 18 mph 1005.6mb 45f 46f
8:50am 14ft 12s 8s 16 22 mph 1005.1mb 45f 46f
7:50am 14.5ft 12s 8s 16 18 mph 1004.5mb 45f 46f
6:50am 15ft 11s 8s 18 22 mph 1004.2mb 45f 46f
5:50am 15.5ft 12s 8s 20 25 mph 1003mb 45f 45f
4:50am 18ft 12s 8s 22 27 mph 1002.1mb 45f 45f
3:50am 18ft 10s 8s 34 43 mph 1000.4mb 45f 45f
2:50am 19.5ft 12s 8s 34 40 mph 998.6mb 45f 45f
1:50am 19.5ft 10s 8s 38 47 mph 996.2mb 45f 45f
12:50am 20ft 12s 8s 40 51 mph 993.5mb 45f 45f
Fri 01/23 11:50pm 18ft 11s 8s 38 49 mph 991.3mb 45f 45f
10:50pm 17ft 12s 7s 40 51 mph 989.5mb 45f 45f
9:50pm 16ft 12s 8s 36 45 mph 987.9mb 45f 45f
8:50pm 13.5ft 11s 8s 25 29 mph 987mb 45f 46f
7:50pm 14.5ft 12s 8s 25 31 mph 985.2mb 45f 46f
6:50pm 14.5ft 13s 8s 20 25 mph 983.3mb 45f 46f
5:50pm 14ft 9s 8s 13 18 mph 982.3mb 45f 45f
4:50pm 13.5ft 10s 7s 20 25 mph 982.5mb 45f 45f
3:50pm 13ft 11s 8s 22 29 mph 983.8mb 45f 46f
2:50pm 13ft 10s 7s 22 29 mph 985.1mb 45f 46f
1:50pm 14ft 14s 8s 22 27 mph 985.9mb 45f 46f
12:50pm 13ft 11s 7s 29 36 mph 987mb 45f 45f
11:50am 13ft 14s 8s 27 34 mph 989mb 45f 45f
10:50am 12.5ft 15s 8s 27 34 mph 991.1mb 45f 46f
9:50am 12.5ft 11s 8s 20 27 mph 993mb 45f 45f
8:50am 12ft 10s 8s 18 22 mph 994.2mb 45f 45f
7:50am 12.5ft 10s 8s 13 18 mph 995mb 45f 46f
6:50am 13ft 9s 8s 16 22 mph 995.2mb 45f 46f
5:50am 12.5ft 11s 8s 20 25 mph 995.2mb 45f 46f
4:50am 10ft 11s 7s 20 25 mph 994.5mb 45f 46f
3:50am 12ft 11s 8s 16 18 mph 993.4mb 45f 46f
2:50am 12ft 10s 8s 18 20 mph 992.4mb 45f 46f